createdAt,value
2019-01-26T00:01:05.023Z,75.67
2019-01-26T00:03:36.205Z,70.63
2019-01-26T00:06:07.461Z,66.83
2019-01-26T00:08:38.620Z,68.37
2019-01-26T00:11:09.800Z,65.93
2019-01-26T00:13:41.005Z,59.67
2019-01-26T00:16:12.144Z,66.40
2019-01-26T00:18:43.263Z,71.53
2019-01-26T00:21:14.414Z,68.70
2019-01-26T00:23:45.555Z,73.70
2019-01-26T00:26:21.042Z,72.63
2019-01-26T00:28:52.279Z,64.43
2019-01-26T00:31:23.473Z,71.63
2019-01-26T00:33:54.714Z,76.63
2019-01-26T00:36:26.048Z,80.07
2019-01-26T00:38:57.312Z,71.53
2019-01-26T00:41:28.431Z,83.37
2019-01-26T00:43:59.553Z,73.57
2019-01-26T00:46:42.382Z,75.33
2019-01-26T00:49:13.555Z,76.30
2019-01-26T00:51:46.153Z,80.33
2019-01-26T00:54:17.284Z,80.73
2019-01-26T00:56:48.608Z,78.33
2019-01-26T00:59:20.098Z,73.53
2019-01-26T01:01:51.320Z,78.00
2019-01-26T01:04:22.411Z,83.40
2019-01-26T01:06:53.667Z,76.57
2019-01-26T01:09:41.478Z,78.37
2019-01-26T01:12:12.655Z,84.53
2019-01-26T01:14:43.931Z,78.13
2019-01-26T01:17:15.215Z,77.27
2019-01-26T01:19:46.477Z,81.93
2019-01-26T01:22:17.717Z,82.80
2019-01-26T01:24:48.936Z,85.37
2019-01-26T01:27:20.096Z,91.03
2019-01-26T01:29:51.216Z,92.27
2019-01-26T01:32:22.469Z,81.47
2019-01-26T01:34:53.603Z,95.20
2019-01-26T01:37:24.800Z,91.53
2019-01-26T01:39:55.991Z,84.37
2019-01-26T01:42:27.151Z,87.93
2019-01-26T01:44:58.365Z,83.53
2019-01-26T01:47:29.564Z,85.43
2019-01-26T01:50:02.032Z,76.00
2019-01-26T01:52:33.373Z,83.40
2019-01-26T01:55:04.867Z,74.03
2019-01-26T01:57:35.962Z,73.57
2019-01-26T02:00:10.542Z,77.97
2019-01-26T02:02:42.740Z,78.83
2019-01-26T02:05:14.108Z,85.00
2019-01-26T02:07:45.267Z,87.37
2019-01-26T02:10:18.863Z,88.37
2019-01-26T02:12:50.112Z,86.70
2019-01-26T02:15:21.371Z,78.80
2019-01-26T02:17:52.615Z,81.13
2019-01-26T02:20:24.614Z,79.70
2019-01-26T02:22:55.747Z,79.20
2019-01-26T02:25:26.978Z,74.37
2019-01-26T02:27:58.186Z,75.03
2019-01-26T02:30:29.284Z,72.77
2019-01-26T02:33:00.390Z,72.93
2019-01-26T02:35:31.455Z,70.83
2019-01-26T02:38:03.665Z,72.30
2019-01-26T02:40:34.923Z,71.93
2019-01-26T02:43:06.201Z,70.77
2019-01-26T02:45:37.345Z,70.93
2019-01-26T02:48:09.560Z,73.17
2019-01-26T02:50:40.699Z,69.13
2019-01-26T02:53:11.916Z,74.27
2019-01-26T02:55:42.978Z,72.93
2019-01-26T02:58:14.073Z,70.43
2019-01-26T03:00:45.180Z,75.43
2019-01-26T03:03:16.374Z,79.53
2019-01-26T03:05:47.536Z,68.87
2019-01-26T03:08:18.596Z,72.33
2019-01-26T03:10:49.720Z,73.33
2019-01-26T03:13:20.811Z,77.20
2019-01-26T03:15:52.059Z,73.73
2019-01-26T03:18:23.319Z,76.80
2019-01-26T03:20:54.446Z,68.63
2019-01-26T03:23:25.693Z,78.33
2019-01-26T03:25:58.002Z,68.57
2019-01-26T03:28:29.217Z,77.37
2019-01-26T03:31:01.330Z,71.73
2019-01-26T03:33:32.462Z,70.93
2019-01-26T03:36:03.557Z,77.37
2019-01-26T03:38:34.628Z,74.30
2019-01-26T03:41:05.909Z,76.70
2019-01-26T03:43:55.991Z,73.20
2019-01-26T03:46:27.155Z,81.27
2019-01-26T03:48:58.299Z,70.60
2019-01-26T03:51:29.460Z,68.50
2019-01-26T03:54:00.516Z,74.00
2019-01-26T03:56:31.586Z,69.77
2019-01-26T03:59:02.658Z,71.80
2019-01-26T04:01:33.889Z,69.10
2019-01-26T04:04:05.223Z,73.93
2019-01-26T04:06:36.293Z,74.87
2019-01-26T04:09:09.974Z,75.30
2019-01-26T04:11:41.114Z,68.03
2019-01-26T04:14:12.184Z,70.07
2019-01-26T04:16:43.504Z,73.43
2019-01-26T04:19:14.597Z,68.77
2019-01-26T04:21:45.713Z,70.63
2019-01-26T04:24:16.881Z,69.60
2019-01-26T04:26:47.967Z,70.80
2019-01-26T04:29:20.520Z,68.37
2019-01-26T04:31:51.738Z,69.83
2019-01-26T04:34:22.903Z,68.60
2019-01-26T04:36:54.085Z,74.93
2019-01-26T04:39:25.158Z,67.27
2019-01-26T04:41:56.265Z,65.00
2019-01-26T04:44:27.341Z,66.70
2019-01-26T04:46:58.492Z,71.13
2019-01-26T04:49:29.591Z,75.70
2019-01-26T04:52:00.656Z,67.27
2019-01-26T04:54:31.847Z,62.00
2019-01-26T04:57:03.041Z,70.27
2019-01-26T04:59:34.132Z,74.27
2019-01-26T05:02:05.362Z,65.93
2019-01-26T05:04:36.553Z,67.00
2019-01-26T05:07:07.730Z,73.73
2019-01-26T05:09:38.789Z,67.83
2019-01-26T05:12:09.929Z,72.93
2019-01-26T05:14:41.132Z,66.07
2019-01-26T05:17:12.214Z,67.40
2019-01-26T05:19:43.415Z,69.40
2019-01-26T05:22:15.578Z,58.37
2019-01-26T05:24:46.704Z,67.20
2019-01-26T05:27:19.843Z,62.70
2019-01-26T05:29:51.005Z,64.27
2019-01-26T05:32:22.290Z,66.80
2019-01-26T05:35:05.220Z,74.43
2019-01-26T05:37:36.364Z,60.83
2019-01-26T05:40:19.446Z,64.23
2019-01-26T05:42:50.522Z,57.73
2019-01-26T05:45:33.188Z,58.50
2019-01-26T05:48:04.725Z,51.33
2019-01-26T05:50:35.786Z,54.20
2019-01-26T05:53:07.038Z,50.53
2019-01-26T05:55:38.186Z,51.97
2019-01-26T05:58:09.296Z,53.87
2019-01-26T06:00:40.334Z,55.33
2019-01-26T06:03:11.469Z,49.03
2019-01-26T06:05:42.541Z,51.57
2019-01-26T06:08:13.693Z,54.07
2019-01-26T06:10:44.802Z,47.57
2019-01-26T06:13:16.069Z,50.47
2019-01-26T06:15:47.204Z,49.90
2019-01-26T06:18:18.388Z,43.00
2019-01-26T06:20:49.690Z,42.03
2019-01-26T06:23:20.910Z,40.93
2019-01-26T06:25:52.139Z,40.07
2019-01-26T06:28:23.241Z,43.37
2019-01-26T06:30:54.450Z,47.50
2019-01-26T06:33:25.676Z,43.20
2019-01-26T06:35:56.830Z,41.97
2019-01-26T06:38:28.038Z,42.40
2019-01-26T06:40:59.201Z,37.47
2019-01-26T06:43:30.274Z,41.30
2019-01-26T06:46:01.415Z,43.93
2019-01-26T06:48:32.602Z,42.53
2019-01-26T06:51:03.828Z,48.23
2019-01-26T06:53:34.991Z,43.53
2019-01-26T06:56:06.271Z,50.37
2019-01-26T06:58:37.469Z,51.47
2019-01-26T07:01:08.614Z,48.17
2019-01-26T07:03:39.856Z,50.07
2019-01-26T07:06:23.908Z,43.63
2019-01-26T07:08:55.043Z,50.23
2019-01-26T07:11:26.421Z,48.30
2019-01-26T07:13:57.805Z,51.80
2019-01-26T07:16:28.913Z,45.83
2019-01-26T07:19:00.104Z,52.87
2019-01-26T07:21:31.173Z,51.10
2019-01-26T07:24:02.361Z,51.77
2019-01-26T07:26:33.536Z,52.40
2019-01-26T07:29:04.857Z,47.50
2019-01-26T07:31:36.063Z,48.40
2019-01-26T07:34:07.279Z,57.87
2019-01-26T07:36:38.444Z,50.37
2019-01-26T07:39:10.758Z,51.63
2019-01-26T07:41:41.988Z,47.70
2019-01-26T07:44:13.273Z,51.77
2019-01-26T07:46:44.470Z,53.13
2019-01-26T07:49:15.756Z,51.83
2019-01-26T07:51:46.987Z,56.53
2019-01-26T07:54:18.230Z,59.93
2019-01-26T07:56:49.552Z,57.07
2019-01-26T07:59:20.881Z,59.33
2019-01-26T08:01:52.526Z,64.00
2019-01-26T08:04:23.825Z,63.07
2019-01-26T08:06:54.981Z,54.90
2019-01-26T08:09:26.190Z,58.23
2019-01-26T08:11:57.459Z,61.33
2019-01-26T08:14:28.664Z,64.40
2019-01-26T08:16:59.875Z,69.03
2019-01-26T08:19:31.031Z,60.27
2019-01-26T08:22:02.169Z,69.47
2019-01-26T08:24:33.310Z,57.03
2019-01-26T08:27:16.875Z,71.07
2019-01-26T08:29:48.078Z,67.03
2019-01-26T08:32:19.250Z,67.67
2019-01-26T08:34:50.394Z,63.70
2019-01-26T08:37:21.523Z,53.70
2019-01-26T08:39:52.680Z,54.23
2019-01-26T08:42:23.873Z,55.37
2019-01-26T08:44:55.155Z,51.63
2019-01-26T08:47:26.255Z,60.90
2019-01-26T08:49:57.376Z,53.37
2019-01-26T08:52:28.456Z,58.63
2019-01-26T08:54:59.532Z,54.83
2019-01-26T08:57:30.701Z,56.40
2019-01-26T09:00:01.782Z,66.77
2019-01-26T09:03:00.961Z,89.57
2019-01-26T09:05:37.402Z,121.53
2019-01-26T09:08:08.622Z,98.20
2019-01-26T09:10:39.679Z,75.27
2019-01-26T09:13:10.869Z,68.13
2019-01-26T09:15:42.507Z,71.23
2019-01-26T09:18:13.701Z,65.13
2019-01-26T09:20:44.865Z,73.43
2019-01-26T09:23:15.973Z,91.00
2019-01-26T09:25:47.323Z,131.30
2019-01-26T09:28:20.062Z,93.53
2019-01-26T09:30:51.181Z,94.23
2019-01-26T09:33:22.385Z,83.40
2019-01-26T09:35:53.616Z,78.10
2019-01-26T09:38:24.838Z,79.77
2019-01-26T09:40:56.103Z,78.20
2019-01-26T09:43:27.257Z,89.23
2019-01-26T09:45:58.311Z,87.47
2019-01-26T09:48:29.399Z,84.53
2019-01-26T09:51:00.567Z,76.77
2019-01-26T09:53:31.703Z,82.67
2019-01-26T09:56:02.908Z,77.13
2019-01-26T09:58:34.036Z,79.07
2019-01-26T10:01:06.024Z,63.33
2019-01-26T10:03:37.308Z,69.50
2019-01-26T10:06:08.369Z,58.77
2019-01-26T10:08:39.747Z,62.07
2019-01-26T10:11:10.875Z,56.57
2019-01-26T10:13:42.007Z,56.43
2019-01-26T10:16:13.131Z,55.87
2019-01-26T10:18:44.489Z,53.53
2019-01-26T10:21:19.849Z,63.23
2019-01-26T10:23:50.965Z,57.57
2019-01-26T10:26:22.116Z,62.07
2019-01-26T10:28:53.389Z,66.43
2019-01-26T10:31:28.912Z,53.63
2019-01-26T10:33:59.981Z,53.23
2019-01-26T10:36:41.094Z,56.97
2019-01-26T10:39:18.823Z,59.97
2019-01-26T10:42:07.801Z,58.47
2019-01-26T10:44:39.079Z,54.30
2019-01-26T10:47:10.258Z,58.27
2019-01-26T10:49:41.410Z,62.37
2019-01-26T10:52:12.605Z,52.53
2019-01-26T10:54:43.802Z,54.90
2019-01-26T10:57:14.933Z,55.33
2019-01-26T10:59:46.204Z,55.30
2019-01-26T11:02:17.646Z,47.53
2019-01-26T11:05:09.179Z,48.27
2019-01-26T11:07:40.315Z,50.60
2019-01-26T11:10:12.157Z,50.53
2019-01-26T11:12:43.361Z,44.40
2019-01-26T11:15:14.718Z,46.37
2019-01-26T11:17:58.754Z,50.30
2019-01-26T11:20:31.493Z,48.87
2019-01-26T11:23:02.664Z,50.77
2019-01-26T11:25:33.912Z,50.17
2019-01-26T11:28:05.097Z,47.30
2019-01-26T11:30:37.312Z,47.63
2019-01-26T11:33:08.513Z,45.57
2019-01-26T11:35:39.622Z,45.63
2019-01-26T11:38:10.723Z,49.87
2019-01-26T11:40:41.843Z,50.20
2019-01-26T11:43:12.936Z,48.93
2019-01-26T11:45:56.671Z,53.77
2019-01-26T11:48:31.325Z,52.07
2019-01-26T11:51:16.147Z,45.53
2019-01-26T11:53:47.311Z,52.70
2019-01-26T11:56:24.696Z,51.57
2019-01-26T11:58:55.800Z,53.80
2019-01-26T12:01:40.504Z,56.33
2019-01-26T12:04:17.660Z,53.37
2019-01-26T12:07:10.558Z,59.67
2019-01-26T12:09:41.650Z,61.23
2019-01-26T12:12:12.941Z,49.83
2019-01-26T12:14:44.135Z,51.33
2019-01-26T12:17:15.338Z,55.93
2019-01-26T12:19:47.972Z,48.13
2019-01-26T12:22:24.906Z,51.50
2019-01-26T12:24:56.100Z,57.47
2019-01-26T12:27:27.212Z,55.30
2019-01-26T12:29:58.414Z,54.73
2019-01-26T12:32:29.940Z,54.50
2019-01-26T12:35:01.031Z,60.50
2019-01-26T12:37:32.125Z,53.90
2019-01-26T12:40:03.364Z,53.80
2019-01-26T12:42:34.540Z,57.53
2019-01-26T12:45:08.324Z,58.20
2019-01-26T12:47:39.508Z,58.23
2019-01-26T12:50:11.051Z,59.60
2019-01-26T12:52:42.272Z,61.60
2019-01-26T12:55:14.770Z,60.93
2019-01-26T12:57:45.964Z,58.10
2019-01-26T13:00:19.167Z,60.57
2019-01-26T13:02:50.701Z,58.23
2019-01-26T13:05:21.972Z,66.90
2019-01-26T13:07:58.658Z,58.20
2019-01-26T13:10:33.851Z,62.30
2019-01-26T13:13:05.881Z,58.93
2019-01-26T13:15:37.233Z,58.13
2019-01-26T13:18:08.524Z,70.00
2019-01-26T13:20:39.719Z,65.07
2019-01-26T13:23:10.856Z,69.33
2019-01-26T13:25:42.150Z,69.97
2019-01-26T13:28:13.470Z,66.23
2019-01-26T13:30:44.651Z,77.77
2019-01-26T13:33:15.950Z,72.50
2019-01-26T13:35:47.183Z,74.33
2019-01-26T13:38:21.107Z,78.53
2019-01-26T13:40:52.251Z,71.97
2019-01-26T13:43:23.583Z,74.17
2019-01-26T13:45:54.913Z,63.83
2019-01-26T13:48:26.076Z,62.17
2019-01-26T13:50:57.865Z,74.20
2019-01-26T13:53:29.077Z,67.47
2019-01-26T13:56:00.297Z,61.97
2019-01-26T13:58:31.423Z,85.20
2019-01-26T14:01:02.502Z,71.67
2019-01-26T14:03:33.754Z,76.10
2019-01-26T14:06:05.575Z,81.57
2019-01-26T14:08:36.852Z,90.67
2019-01-26T14:11:08.126Z,88.87
2019-01-26T14:13:39.286Z,88.40
2019-01-26T14:16:11.814Z,86.47
2019-01-26T14:18:42.930Z,85.27
2019-01-26T14:21:14.280Z,85.30
2019-01-26T14:23:46.453Z,77.90
2019-01-26T14:26:17.645Z,79.33
2019-01-26T14:28:48.805Z,79.00
2019-01-26T14:31:20.338Z,78.70
2019-01-26T14:33:51.836Z,82.23
2019-01-26T14:36:23.167Z,79.63
2019-01-26T14:38:54.465Z,84.90
2019-01-26T14:41:25.614Z,79.97
2019-01-26T14:43:56.684Z,77.27
2019-01-26T14:46:28.056Z,85.63
2019-01-26T14:48:59.176Z,82.13
2019-01-26T14:51:30.392Z,78.70
2019-01-26T14:54:01.578Z,94.03
2019-01-26T14:56:33.727Z,82.17
2019-01-26T14:59:05.104Z,80.20
2019-01-26T15:01:36.302Z,81.83
2019-01-26T15:04:07.548Z,82.27
2019-01-26T15:06:38.722Z,81.83
2019-01-26T15:09:10.664Z,79.47
2019-01-26T15:11:41.846Z,95.27
2019-01-26T15:14:12.962Z,82.80
2019-01-26T15:16:44.113Z,90.40
2019-01-26T15:19:17.031Z,97.07
2019-01-26T15:21:48.491Z,94.47
2019-01-26T15:24:21.097Z,91.03
2019-01-26T15:26:52.627Z,92.47
2019-01-26T15:29:23.764Z,100.70
2019-01-26T15:31:54.924Z,106.27
2019-01-26T15:34:26.036Z,113.10
2019-01-26T15:36:57.187Z,107.60
2019-01-26T15:39:29.008Z,104.43
2019-01-26T15:42:00.363Z,106.20
2019-01-26T15:44:31.543Z,113.50
2019-01-26T15:47:02.903Z,92.50
2019-01-26T15:49:34.321Z,90.90
2019-01-26T15:52:05.646Z,80.57
2019-01-26T15:54:36.954Z,82.40
2019-01-26T15:57:08.156Z,80.37
2019-01-26T15:59:39.435Z,87.97
2019-01-26T16:02:10.779Z,84.10
2019-01-26T16:04:41.971Z,84.13
2019-01-26T16:07:13.084Z,80.67
2019-01-26T16:09:44.246Z,80.07
2019-01-26T16:12:15.630Z,79.90
2019-01-26T16:14:46.826Z,78.03
2019-01-26T16:17:18.062Z,82.43
2019-01-26T16:19:49.283Z,88.60
2019-01-26T16:22:20.516Z,103.00
2019-01-26T16:24:51.708Z,109.17
2019-01-26T16:27:22.859Z,115.87
2019-01-26T16:29:54.097Z,119.77
2019-01-26T16:32:25.344Z,124.07
2019-01-26T16:34:58.421Z,128.60
2019-01-26T16:37:29.663Z,131.40
2019-01-26T16:40:09.124Z,127.77
2019-01-26T16:42:48.867Z,125.53
2019-01-26T16:45:28.713Z,118.43
2019-01-26T16:47:59.952Z,111.33
2019-01-26T16:50:32.624Z,104.93
2019-01-26T16:53:03.832Z,97.90
2019-01-26T16:55:35.131Z,94.53
2019-01-26T16:58:07.137Z,92.97
2019-01-26T17:00:43.791Z,87.43
2019-01-26T17:03:14.947Z,85.83
2019-01-26T17:05:46.142Z,80.73
2019-01-26T17:08:17.406Z,84.00
2019-01-26T17:10:48.666Z,79.33
2019-01-26T17:13:20.934Z,77.63
2019-01-26T17:15:53.087Z,76.97
2019-01-26T17:18:24.355Z,77.60
2019-01-26T17:20:55.512Z,81.03
2019-01-26T17:23:29.449Z,83.87
2019-01-26T17:26:00.631Z,79.23
2019-01-26T17:28:31.829Z,82.60
2019-01-26T17:31:02.951Z,75.50
2019-01-26T17:33:34.053Z,82.93
2019-01-26T17:36:05.311Z,80.23
2019-01-26T17:38:36.481Z,72.47
2019-01-26T17:41:07.612Z,72.87
2019-01-26T17:43:38.808Z,73.50
2019-01-26T17:46:10.116Z,74.20
2019-01-26T17:48:41.173Z,75.03
2019-01-26T17:51:12.364Z,76.40
2019-01-26T17:53:43.502Z,76.60
2019-01-26T17:56:14.677Z,70.57
2019-01-26T17:58:46.572Z,73.90
2019-01-26T18:01:17.720Z,67.87
2019-01-26T18:03:48.792Z,74.97
2019-01-26T18:06:22.202Z,68.00
2019-01-26T18:08:53.451Z,70.53
2019-01-26T18:30:42.536Z,83.03
2019-01-26T18:33:14.456Z,73.13
2019-01-26T18:35:46.049Z,69.63
2019-01-26T18:38:19.035Z,78.40
2019-01-26T18:40:50.586Z,74.53
2019-01-26T18:43:21.919Z,65.87
2019-01-26T18:45:53.695Z,69.07
2019-01-26T18:48:26.478Z,72.47
2019-01-26T18:50:58.640Z,71.17
2019-01-26T18:53:31.460Z,68.10
2019-01-26T18:56:06.633Z,72.77
2019-01-26T18:58:38.415Z,73.23
2019-01-26T19:01:09.900Z,70.57
2019-01-26T19:04:16.711Z,71.63
2019-01-26T19:06:51.299Z,70.07
2019-01-26T19:09:22.777Z,69.70
2019-01-26T19:11:54.498Z,76.73
2019-01-26T19:14:26.228Z,84.17
2019-01-26T19:16:57.544Z,85.33
2019-01-26T19:19:28.762Z,81.10
2019-01-26T19:22:00.533Z,78.60
2019-01-26T19:24:31.737Z,76.00
2019-01-26T19:27:03.113Z,77.87
2019-01-26T19:29:34.348Z,90.60
2019-01-26T19:32:06.297Z,79.27
2019-01-26T19:34:37.555Z,76.27
2019-01-26T19:37:13.781Z,78.87
2019-01-26T19:39:46.485Z,89.03
2019-01-26T19:42:17.681Z,76.30
2019-01-26T19:44:49.430Z,80.27
2019-01-26T19:47:20.716Z,96.87
2019-01-26T19:49:52.079Z,99.87
2019-01-26T19:52:23.631Z,110.37
2019-01-26T19:54:54.845Z,107.67
2019-01-26T19:57:26.232Z,108.27
2019-01-26T19:59:57.774Z,114.37
2019-01-26T20:02:29.137Z,112.97
2019-01-26T20:05:00.594Z,115.77
2019-01-26T20:07:31.910Z,114.63
2019-01-26T20:10:03.195Z,108.97
2019-01-26T20:12:36.273Z,100.47
2019-01-26T20:15:11.956Z,93.63
2019-01-26T20:17:44.357Z,92.43
2019-01-26T20:20:18.416Z,82.60
2019-01-26T20:22:49.561Z,81.20
2019-01-26T20:25:20.828Z,84.10
2019-01-26T20:27:52.246Z,84.97
2019-01-26T20:30:26.403Z,79.93
2019-01-26T20:32:57.684Z,78.17
2019-01-26T20:35:29.365Z,80.60
2019-01-26T20:38:00.558Z,80.70
2019-01-26T20:40:31.878Z,82.30
2019-01-26T20:43:03.075Z,71.63
2019-01-26T20:45:34.391Z,85.63
2019-01-26T20:48:05.818Z,82.43
2019-01-26T20:50:36.975Z,79.57
2019-01-26T20:53:08.317Z,81.43
2019-01-26T20:55:39.513Z,72.13
2019-01-26T20:58:10.854Z,76.23
2019-01-26T21:00:42.130Z,75.20
2019-01-26T21:03:13.354Z,81.67
2019-01-26T21:05:44.517Z,77.87
2019-01-26T21:08:15.719Z,81.00
2019-01-26T21:10:47.101Z,81.27
2019-01-26T21:13:18.465Z,91.77
2019-01-26T21:15:49.911Z,104.57
2019-01-26T21:18:21.187Z,116.47
2019-01-26T21:20:52.442Z,120.63
2019-01-26T21:23:23.855Z,130.83
2019-01-26T21:25:54.992Z,127.53
2019-01-26T21:28:26.137Z,124.07
2019-01-26T21:30:57.388Z,116.93
2019-01-26T21:33:30.103Z,113.73
2019-01-26T21:36:01.325Z,116.90
2019-01-26T21:38:32.540Z,137.17
2019-01-26T21:41:03.803Z,147.93
2019-01-26T21:43:35.177Z,151.63
2019-01-26T21:46:09.819Z,146.83
2019-01-26T21:48:41.043Z,141.90
2019-01-26T21:51:12.306Z,135.03
2019-01-26T21:53:43.562Z,133.93
2019-01-26T21:56:14.987Z,132.43
2019-01-26T21:58:46.819Z,118.37
2019-01-26T22:01:18.577Z,124.63
2019-01-26T22:03:49.961Z,110.93
2019-01-26T22:06:21.567Z,114.57
2019-01-26T22:08:53.177Z,115.07
2019-01-26T22:11:25.043Z,117.70
2019-01-26T22:13:56.457Z,115.10
2019-01-26T22:16:28.177Z,104.93
2019-01-26T22:18:59.560Z,106.93
2019-01-26T22:21:31.202Z,113.23
2019-01-26T22:24:02.646Z,107.33
2019-01-26T22:26:34.309Z,100.57
2019-01-26T22:29:06.156Z,100.83
2019-01-26T22:31:37.503Z,104.80
2019-01-26T22:34:08.792Z,94.13
2019-01-26T22:36:40.094Z,112.30
2019-01-26T22:39:11.693Z,105.10
2019-01-26T22:41:53.773Z,100.47
2019-01-26T22:44:25.147Z,92.63
2019-01-26T22:46:56.314Z,105.53
2019-01-26T22:49:27.530Z,99.40
2019-01-26T22:51:58.733Z,106.60
2019-01-26T22:54:29.939Z,107.70
2019-01-26T22:57:01.218Z,104.97
2019-01-26T22:59:32.442Z,106.23
2019-01-26T23:02:03.774Z,99.13
2019-01-26T23:04:48.387Z,96.17
2019-01-26T23:08:02.373Z,108.50
2019-01-26T23:11:00.254Z,101.40
2019-01-26T23:14:14.053Z,113.20
2019-01-26T23:17:29.552Z,100.77
2019-01-26T23:20:26.515Z,101.17
2019-01-26T23:23:49.566Z,99.97
2019-01-26T23:27:11.199Z,94.37
2019-01-26T23:30:23.229Z,98.93
2019-01-26T23:32:54.476Z,89.27
2019-01-26T23:35:26.135Z,87.77
2019-01-26T23:37:57.416Z,90.77
2019-01-26T23:40:28.671Z,90.80
2019-01-26T23:42:59.866Z,91.20
2019-01-26T23:45:31.152Z,94.23
2019-01-26T23:48:02.445Z,94.23
2019-01-26T23:50:33.683Z,97.87
2019-01-26T23:53:05.030Z,88.07
2019-01-26T23:55:36.125Z,90.20
2019-01-26T23:58:07.436Z,81.97
